sensor_id;sensor_type;location;lat;lon;timestamp;P1;durP1;ratioP1;P2;durP2;ratioP2
21260;SDS011;10788;47.930;9.766;2023-08-17T00:00:06;0.10;;;0.10;;
21260;SDS011;10788;47.930;9.766;2023-08-17T00:02:38;0.10;;;0.10;;
21260;SDS011;10788;47.930;9.766;2023-08-17T00:05:04;0.10;;;0.10;;
21260;SDS011;10788;47.930;9.766;2023-08-17T00:07:31;0.10;;;0.10;;
21260;SDS011;10788;47.930;9.766;2023-08-17T00:09:57;0.00;;;0.00;;
21260;SDS011;10788;47.930;9.766;2023-08-17T00:12:23;0.10;;;0.10;;
21260;SDS011;10788;47.930;9.766;2023-08-17T00:14:48;0.10;;;0.10;;
21260;SDS011;10788;47.930;9.766;2023-08-17T00:17:14;0.10;;;0.10;;
21260;SDS011;10788;47.930;9.766;2023-08-17T00:19:40;0.10;;;0.10;;
21260;SDS011;10788;47.930;9.766;2023-08-17T00:22:05;0.10;;;0.10;;
21260;SDS011;10788;47.930;9.766;2023-08-17T00:24:31;0.00;;;0.00;;
21260;SDS011;10788;47.930;9.766;2023-08-17T00:26:56;0.10;;;0.10;;
21260;SDS011;10788;47.930;9.766;2023-08-17T00:29:22;0.00;;;0.00;;
21260;SDS011;10788;47.930;9.766;2023-08-17T00:31:48;0.00;;;0.00;;
21260;SDS011;10788;47.930;9.766;2023-08-17T00:34:13;0.10;;;0.10;;
21260;SDS011;10788;47.930;9.766;2023-08-17T00:36:39;0.10;;;0.10;;
21260;SDS011;10788;47.930;9.766;2023-08-17T00:39:04;0.10;;;0.10;;
21260;SDS011;10788;47.930;9.766;2023-08-17T00:41:30;0.00;;;0.00;;
21260;SDS011;10788;47.930;9.766;2023-08-17T00:43:56;0.10;;;0.10;;
21260;SDS011;10788;47.930;9.766;2023-08-17T00:46:22;0.10;;;0.10;;
21260;SDS011;10788;47.930;9.766;2023-08-17T00:48:48;0.10;;;0.10;;
21260;SDS011;10788;47.930;9.766;2023-08-17T00:51:14;0.10;;;0.10;;
21260;SDS011;10788;47.930;9.766;2023-08-17T00:53:40;0.00;;;0.00;;
21260;SDS011;10788;47.930;9.766;2023-08-17T00:56:07;0.10;;;0.10;;
21260;SDS011;10788;47.930;9.766;2023-08-17T00:58:33;0.03;;;0.03;;
21260;SDS011;10788;47.930;9.766;2023-08-17T01:00:59;0.10;;;0.10;;
21260;SDS011;10788;47.930;9.766;2023-08-17T01:03:27;0.10;;;0.10;;
21260;SDS011;10788;47.930;9.766;2023-08-17T01:05:55;0.10;;;0.10;;
21260;SDS011;10788;47.930;9.766;2023-08-17T01:08:22;0.00;;;0.00;;
21260;SDS011;10788;47.930;9.766;2023-08-17T01:13:24;0.10;;;0.10;;
21260;SDS011;10788;47.930;9.766;2023-08-17T01:15:56;0.00;;;0.00;;
21260;SDS011;10788;47.930;9.766;2023-08-17T01:18:29;0.10;;;0.10;;
21260;SDS011;10788;47.930;9.766;2023-08-17T01:20:56;0.10;;;0.10;;
21260;SDS011;10788;47.930;9.766;2023-08-17T01:23:23;0.00;;;0.00;;
21260;SDS011;10788;47.930;9.766;2023-08-17T01:25:48;0.10;;;0.10;;
21260;SDS011;10788;47.930;9.766;2023-08-17T01:28:14;0.10;;;0.10;;
21260;SDS011;10788;47.930;9.766;2023-08-17T01:30:48;0.10;;;0.10;;
21260;SDS011;10788;47.930;9.766;2023-08-17T01:33:24;0.10;;;0.10;;
21260;SDS011;10788;47.930;9.766;2023-08-17T01:36:13;0.00;;;0.00;;
21260;SDS011;10788;47.930;9.766;2023-08-17T01:38:45;0.10;;;0.10;;
21260;SDS011;10788;47.930;9.766;2023-08-17T01:41:11;0.00;;;0.00;;
21260;SDS011;10788;47.930;9.766;2023-08-17T01:43:41;0.10;;;0.10;;
21260;SDS011;10788;47.930;9.766;2023-08-17T01:46:12;0.00;;;0.00;;
21260;SDS011;10788;47.930;9.766;2023-08-17T01:48:40;0.00;;;0.00;;
21260;SDS011;10788;47.930;9.766;2023-08-17T01:51:06;0.00;;;0.00;;
21260;SDS011;10788;47.930;9.766;2023-08-17T01:53:32;0.00;;;0.00;;
21260;SDS011;10788;47.930;9.766;2023-08-17T01:55:57;0.00;;;0.00;;
21260;SDS011;10788;47.930;9.766;2023-08-17T01:58:23;0.00;;;0.00;;
21260;SDS011;10788;47.930;9.766;2023-08-17T02:00:48;0.00;;;0.00;;
21260;SDS011;10788;47.930;9.766;2023-08-17T02:03:14;0.07;;;0.07;;
21260;SDS011;10788;47.930;9.766;2023-08-17T02:05:43;0.00;;;0.00;;
21260;SDS011;10788;47.930;9.766;2023-08-17T02:08:10;0.10;;;0.10;;
21260;SDS011;10788;47.930;9.766;2023-08-17T02:10:36;0.00;;;0.00;;
21260;SDS011;10788;47.930;9.766;2023-08-17T02:13:01;0.00;;;0.00;;
21260;SDS011;10788;47.930;9.766;2023-08-17T02:15:27;0.00;;;0.00;;
21260;SDS011;10788;47.930;9.766;2023-08-17T02:17:52;0.10;;;0.10;;
21260;SDS011;10788;47.930;9.766;2023-08-17T02:20:18;0.10;;;0.10;;
21260;SDS011;10788;47.930;9.766;2023-08-17T02:22:44;0.00;;;0.00;;
21260;SDS011;10788;47.930;9.766;2023-08-17T02:25:09;0.10;;;0.10;;
21260;SDS011;10788;47.930;9.766;2023-08-17T02:27:35;0.00;;;0.00;;
21260;SDS011;10788;47.930;9.766;2023-08-17T02:30:01;0.10;;;0.10;;
21260;SDS011;10788;47.930;9.766;2023-08-17T02:32:28;0.10;;;0.10;;
21260;SDS011;10788;47.930;9.766;2023-08-17T02:34:54;0.10;;;0.10;;
21260;SDS011;10788;47.930;9.766;2023-08-17T02:37:19;0.10;;;0.10;;
21260;SDS011;10788;47.930;9.766;2023-08-17T02:39:45;0.00;;;0.00;;
21260;SDS011;10788;47.930;9.766;2023-08-17T02:42:11;0.00;;;0.00;;
21260;SDS011;10788;47.930;9.766;2023-08-17T02:44:36;0.00;;;0.00;;
21260;SDS011;10788;47.930;9.766;2023-08-17T02:47:02;0.10;;;0.10;;
21260;SDS011;10788;47.930;9.766;2023-08-17T02:49:28;0.00;;;0.00;;
21260;SDS011;10788;47.930;9.766;2023-08-17T02:51:53;0.10;;;0.10;;
21260;SDS011;10788;47.930;9.766;2023-08-17T02:54:19;0.10;;;0.10;;
21260;SDS011;10788;47.930;9.766;2023-08-17T02:56:44;0.10;;;0.10;;
21260;SDS011;10788;47.930;9.766;2023-08-17T02:59:10;0.00;;;0.00;;
21260;SDS011;10788;47.930;9.766;2023-08-17T03:01:35;0.00;;;0.00;;
21260;SDS011;10788;47.930;9.766;2023-08-17T03:04:01;0.00;;;0.00;;
21260;SDS011;10788;47.930;9.766;2023-08-17T03:06:27;0.00;;;0.00;;
21260;SDS011;10788;47.930;9.766;2023-08-17T03:08:52;0.03;;;0.03;;
21260;SDS011;10788;47.930;9.766;2023-08-17T03:11:18;0.00;;;0.00;;
21260;SDS011;10788;47.930;9.766;2023-08-17T03:13:45;0.03;;;0.03;;
21260;SDS011;10788;47.930;9.766;2023-08-17T03:16:13;0.00;;;0.00;;
21260;SDS011;10788;47.930;9.766;2023-08-17T03:18:39;0.10;;;0.10;;
21260;SDS011;10788;47.930;9.766;2023-08-17T03:21:04;0.10;;;0.10;;
21260;SDS011;10788;47.930;9.766;2023-08-17T03:23:31;0.00;;;0.00;;
21260;SDS011;10788;47.930;9.766;2023-08-17T03:25:57;0.10;;;0.10;;
21260;SDS011;10788;47.930;9.766;2023-08-17T03:28:23;0.10;;;0.10;;
21260;SDS011;10788;47.930;9.766;2023-08-17T03:30:50;0.00;;;0.00;;
21260;SDS011;10788;47.930;9.766;2023-08-17T03:33:20;0.00;;;0.00;;
21260;SDS011;10788;47.930;9.766;2023-08-17T03:35:45;0.10;;;0.10;;
21260;SDS011;10788;47.930;9.766;2023-08-17T03:38:11;0.00;;;0.00;;
21260;SDS011;10788;47.930;9.766;2023-08-17T03:40:37;0.00;;;0.00;;
21260;SDS011;10788;47.930;9.766;2023-08-17T03:43:03;0.00;;;0.00;;
21260;SDS011;10788;47.930;9.766;2023-08-17T03:45:29;0.00;;;0.00;;
21260;SDS011;10788;47.930;9.766;2023-08-17T03:47:55;0.00;;;0.00;;
21260;SDS011;10788;47.930;9.766;2023-08-17T03:50:25;0.00;;;0.00;;
21260;SDS011;10788;47.930;9.766;2023-08-17T03:52:54;0.00;;;0.00;;
21260;SDS011;10788;47.930;9.766;2023-08-17T03:55:20;0.00;;;0.00;;
21260;SDS011;10788;47.930;9.766;2023-08-17T03:57:45;0.00;;;0.00;;
21260;SDS011;10788;47.930;9.766;2023-08-17T04:00:11;0.00;;;0.00;;
21260;SDS011;10788;47.930;9.766;2023-08-17T04:02:37;0.00;;;0.00;;
21260;SDS011;10788;47.930;9.766;2023-08-17T04:05:02;0.00;;;0.00;;
21260;SDS011;10788;47.930;9.766;2023-08-17T04:07:28;0.10;;;0.10;;
21260;SDS011;10788;47.930;9.766;2023-08-17T04:09:54;0.10;;;0.10;;
21260;SDS011;10788;47.930;9.766;2023-08-17T04:12:19;0.00;;;0.00;;
21260;SDS011;10788;47.930;9.766;2023-08-17T04:14:45;0.00;;;0.00;;
21260;SDS011;10788;47.930;9.766;2023-08-17T04:17:11;0.00;;;0.00;;
21260;SDS011;10788;47.930;9.766;2023-08-17T04:19:37;0.00;;;0.00;;
21260;SDS011;10788;47.930;9.766;2023-08-17T04:22:02;0.00;;;0.00;;
21260;SDS011;10788;47.930;9.766;2023-08-17T04:24:28;0.10;;;0.10;;
21260;SDS011;10788;47.930;9.766;2023-08-17T04:26:54;0.00;;;0.00;;
21260;SDS011;10788;47.930;9.766;2023-08-17T04:29:20;0.00;;;0.00;;
21260;SDS011;10788;47.930;9.766;2023-08-17T04:31:45;0.10;;;0.10;;
21260;SDS011;10788;47.930;9.766;2023-08-17T04:34:11;0.00;;;0.00;;
21260;SDS011;10788;47.930;9.766;2023-08-17T04:36:37;0.00;;;0.00;;
21260;SDS011;10788;47.930;9.766;2023-08-17T04:39:02;0.00;;;0.00;;
21260;SDS011;10788;47.930;9.766;2023-08-17T04:41:29;0.00;;;0.00;;
21260;SDS011;10788;47.930;9.766;2023-08-17T04:43:55;0.00;;;0.00;;
21260;SDS011;10788;47.930;9.766;2023-08-17T04:46:21;0.00;;;0.00;;
21260;SDS011;10788;47.930;9.766;2023-08-17T04:48:47;0.00;;;0.00;;
21260;SDS011;10788;47.930;9.766;2023-08-17T04:51:12;0.00;;;0.00;;
21260;SDS011;10788;47.930;9.766;2023-08-17T04:53:38;0.00;;;0.00;;
21260;SDS011;10788;47.930;9.766;2023-08-17T04:56:04;0.00;;;0.00;;
21260;SDS011;10788;47.930;9.766;2023-08-17T04:58:29;0.10;;;0.10;;
21260;SDS011;10788;47.930;9.766;2023-08-17T05:00:55;0.00;;;0.00;;
21260;SDS011;10788;47.930;9.766;2023-08-17T05:03:21;0.03;;;0.03;;
21260;SDS011;10788;47.930;9.766;2023-08-17T05:05:46;0.00;;;0.00;;
21260;SDS011;10788;47.930;9.766;2023-08-17T05:08:12;0.00;;;0.00;;
21260;SDS011;10788;47.930;9.766;2023-08-17T05:10:38;0.00;;;0.00;;
21260;SDS011;10788;47.930;9.766;2023-08-17T05:13:04;0.00;;;0.00;;
21260;SDS011;10788;47.930;9.766;2023-08-17T05:15:30;0.00;;;0.00;;
21260;SDS011;10788;47.930;9.766;2023-08-17T05:17:55;0.00;;;0.00;;
21260;SDS011;10788;47.930;9.766;2023-08-17T05:20:21;0.00;;;0.00;;
21260;SDS011;10788;47.930;9.766;2023-08-17T05:22:47;0.00;;;0.00;;
21260;SDS011;10788;47.930;9.766;2023-08-17T05:25:13;0.03;;;0.03;;
21260;SDS011;10788;47.930;9.766;2023-08-17T05:27:38;0.00;;;0.00;;
21260;SDS011;10788;47.930;9.766;2023-08-17T05:30:04;0.00;;;0.00;;
21260;SDS011;10788;47.930;9.766;2023-08-17T05:32:30;0.00;;;0.00;;
21260;SDS011;10788;47.930;9.766;2023-08-17T05:34:56;0.00;;;0.00;;
21260;SDS011;10788;47.930;9.766;2023-08-17T05:37:22;0.10;;;0.10;;
21260;SDS011;10788;47.930;9.766;2023-08-17T05:39:47;0.00;;;0.00;;
21260;SDS011;10788;47.930;9.766;2023-08-17T05:42:13;0.00;;;0.00;;
21260;SDS011;10788;47.930;9.766;2023-08-17T05:44:39;0.10;;;0.10;;
21260;SDS011;10788;47.930;9.766;2023-08-17T05:47:04;0.03;;;0.03;;
21260;SDS011;10788;47.930;9.766;2023-08-17T05:49:30;0.00;;;0.00;;
21260;SDS011;10788;47.930;9.766;2023-08-17T05:51:56;0.00;;;0.00;;
21260;SDS011;10788;47.930;9.766;2023-08-17T05:54:21;0.00;;;0.00;;
21260;SDS011;10788;47.930;9.766;2023-08-17T05:56:47;0.00;;;0.00;;
21260;SDS011;10788;47.930;9.766;2023-08-17T05:59:13;0.00;;;0.00;;
21260;SDS011;10788;47.930;9.766;2023-08-17T06:01:39;0.00;;;0.00;;
21260;SDS011;10788;47.930;9.766;2023-08-17T06:04:05;0.00;;;0.00;;
21260;SDS011;10788;47.930;9.766;2023-08-17T06:06:31;0.10;;;0.10;;
21260;SDS011;10788;47.930;9.766;2023-08-17T06:08:56;0.10;;;0.10;;
21260;SDS011;10788;47.930;9.766;2023-08-17T06:11:22;0.00;;;0.00;;
21260;SDS011;10788;47.930;9.766;2023-08-17T06:13:48;0.00;;;0.00;;
21260;SDS011;10788;47.930;9.766;2023-08-17T06:16:14;0.00;;;0.00;;
21260;SDS011;10788;47.930;9.766;2023-08-17T06:18:40;0.07;;;0.07;;
21260;SDS011;10788;47.930;9.766;2023-08-17T06:21:06;0.10;;;0.10;;
21260;SDS011;10788;47.930;9.766;2023-08-17T06:23:32;0.00;;;0.00;;
21260;SDS011;10788;47.930;9.766;2023-08-17T06:25:59;0.10;;;0.10;;
21260;SDS011;10788;47.930;9.766;2023-08-17T06:28:25;0.00;;;0.00;;
21260;SDS011;10788;47.930;9.766;2023-08-17T06:30:51;0.00;;;0.00;;
21260;SDS011;10788;47.930;9.766;2023-08-17T06:33:18;0.10;;;0.10;;
21260;SDS011;10788;47.930;9.766;2023-08-17T06:35:44;0.00;;;0.00;;
21260;SDS011;10788;47.930;9.766;2023-08-17T06:38:10;0.10;;;0.10;;
21260;SDS011;10788;47.930;9.766;2023-08-17T06:40:35;0.07;;;0.07;;
21260;SDS011;10788;47.930;9.766;2023-08-17T06:43:01;0.10;;;0.10;;
21260;SDS011;10788;47.930;9.766;2023-08-17T06:45:26;0.10;;;0.10;;
21260;SDS011;10788;47.930;9.766;2023-08-17T06:47:52;0.10;;;0.10;;
21260;SDS011;10788;47.930;9.766;2023-08-17T06:50:18;0.07;;;0.07;;
21260;SDS011;10788;47.930;9.766;2023-08-17T06:52:43;0.07;;;0.07;;
21260;SDS011;10788;47.930;9.766;2023-08-17T06:55:09;0.10;;;0.10;;
21260;SDS011;10788;47.930;9.766;2023-08-17T06:57:35;0.00;;;0.00;;
21260;SDS011;10788;47.930;9.766;2023-08-17T07:00:01;0.10;;;0.10;;
21260;SDS011;10788;47.930;9.766;2023-08-17T07:02:30;0.13;;;0.13;;
21260;SDS011;10788;47.930;9.766;2023-08-17T07:04:56;0.10;;;0.10;;
21260;SDS011;10788;47.930;9.766;2023-08-17T07:07:22;0.10;;;0.10;;
21260;SDS011;10788;47.930;9.766;2023-08-17T07:09:47;0.10;;;0.10;;
21260;SDS011;10788;47.930;9.766;2023-08-17T07:12:13;0.10;;;0.10;;
21260;SDS011;10788;47.930;9.766;2023-08-17T07:14:38;0.10;;;0.10;;
21260;SDS011;10788;47.930;9.766;2023-08-17T07:17:04;0.10;;;0.10;;
21260;SDS011;10788;47.930;9.766;2023-08-17T07:19:29;0.10;;;0.10;;
21260;SDS011;10788;47.930;9.766;2023-08-17T07:21:55;0.10;;;0.10;;
21260;SDS011;10788;47.930;9.766;2023-08-17T07:24:21;0.10;;;0.10;;
21260;SDS011;10788;47.930;9.766;2023-08-17T07:26:46;0.10;;;0.10;;
21260;SDS011;10788;47.930;9.766;2023-08-17T07:29:12;0.10;;;0.10;;
21260;SDS011;10788;47.930;9.766;2023-08-17T07:31:38;0.20;;;0.20;;
21260;SDS011;10788;47.930;9.766;2023-08-17T07:34:06;0.10;;;0.10;;
21260;SDS011;10788;47.930;9.766;2023-08-17T07:36:33;0.20;;;0.20;;
21260;SDS011;10788;47.930;9.766;2023-08-17T07:38:59;0.10;;;0.10;;
21260;SDS011;10788;47.930;9.766;2023-08-17T07:41:25;0.20;;;0.20;;
21260;SDS011;10788;47.930;9.766;2023-08-17T07:43:51;0.10;;;0.10;;
21260;SDS011;10788;47.930;9.766;2023-08-17T07:46:16;0.10;;;0.10;;
21260;SDS011;10788;47.930;9.766;2023-08-17T07:48:42;0.10;;;0.10;;
21260;SDS011;10788;47.930;9.766;2023-08-17T07:51:08;0.10;;;0.10;;
21260;SDS011;10788;47.930;9.766;2023-08-17T07:53:34;0.20;;;0.20;;
21260;SDS011;10788;47.930;9.766;2023-08-17T07:55:59;0.10;;;0.10;;
21260;SDS011;10788;47.930;9.766;2023-08-17T07:58:25;0.10;;;0.10;;
21260;SDS011;10788;47.930;9.766;2023-08-17T08:00:51;0.10;;;0.10;;
21260;SDS011;10788;47.930;9.766;2023-08-17T08:03:16;0.10;;;0.10;;
21260;SDS011;10788;47.930;9.766;2023-08-17T08:05:42;0.10;;;0.10;;
21260;SDS011;10788;47.930;9.766;2023-08-17T08:08:08;0.20;;;0.20;;
21260;SDS011;10788;47.930;9.766;2023-08-17T08:10:33;0.20;;;0.20;;
21260;SDS011;10788;47.930;9.766;2023-08-17T08:12:59;0.20;;;0.20;;
21260;SDS011;10788;47.930;9.766;2023-08-17T08:15:24;0.27;;;0.27;;
21260;SDS011;10788;47.930;9.766;2023-08-17T08:17:50;0.20;;;0.20;;
21260;SDS011;10788;47.930;9.766;2023-08-17T08:20:16;0.20;;;0.20;;
21260;SDS011;10788;47.930;9.766;2023-08-17T08:22:41;0.20;;;0.20;;
21260;SDS011;10788;47.930;9.766;2023-08-17T08:25:07;0.20;;;0.20;;
21260;SDS011;10788;47.930;9.766;2023-08-17T08:27:33;0.20;;;0.20;;
21260;SDS011;10788;47.930;9.766;2023-08-17T08:29:58;0.20;;;0.20;;
21260;SDS011;10788;47.930;9.766;2023-08-17T08:32:24;0.20;;;0.20;;
21260;SDS011;10788;47.930;9.766;2023-08-17T08:34:50;0.20;;;0.20;;
21260;SDS011;10788;47.930;9.766;2023-08-17T08:37:15;0.20;;;0.20;;
21260;SDS011;10788;47.930;9.766;2023-08-17T08:39:48;0.20;;;0.20;;
21260;SDS011;10788;47.930;9.766;2023-08-17T08:42:15;0.20;;;0.20;;
21260;SDS011;10788;47.930;9.766;2023-08-17T08:44:41;0.20;;;0.20;;
21260;SDS011;10788;47.930;9.766;2023-08-17T08:47:06;0.20;;;0.20;;
21260;SDS011;10788;47.930;9.766;2023-08-17T08:49:33;0.30;;;0.30;;
21260;SDS011;10788;47.930;9.766;2023-08-17T08:52:08;0.30;;;0.30;;
21260;SDS011;10788;47.930;9.766;2023-08-17T08:54:39;0.30;;;0.30;;
21260;SDS011;10788;47.930;9.766;2023-08-17T08:57:09;0.20;;;0.20;;
21260;SDS011;10788;47.930;9.766;2023-08-17T08:59:39;0.20;;;0.20;;
21260;SDS011;10788;47.930;9.766;2023-08-17T09:02:14;0.30;;;0.30;;
21260;SDS011;10788;47.930;9.766;2023-08-17T09:04:41;0.30;;;0.30;;
21260;SDS011;10788;47.930;9.766;2023-08-17T09:07:10;0.20;;;0.20;;
21260;SDS011;10788;47.930;9.766;2023-08-17T09:09:37;0.20;;;0.20;;
21260;SDS011;10788;47.930;9.766;2023-08-17T09:12:03;0.20;;;0.20;;
21260;SDS011;10788;47.930;9.766;2023-08-17T09:14:31;0.30;;;0.30;;
21260;SDS011;10788;47.930;9.766;2023-08-17T09:16:57;0.20;;;0.20;;
21260;SDS011;10788;47.930;9.766;2023-08-17T09:19:23;0.27;;;0.27;;
21260;SDS011;10788;47.930;9.766;2023-08-17T09:21:50;0.30;;;0.30;;
21260;SDS011;10788;47.930;9.766;2023-08-17T09:24:16;0.20;;;0.20;;
21260;SDS011;10788;47.930;9.766;2023-08-17T09:26:42;0.30;;;0.30;;
21260;SDS011;10788;47.930;9.766;2023-08-17T09:29:18;0.30;;;0.30;;
21260;SDS011;10788;47.930;9.766;2023-08-17T09:31:45;0.30;;;0.30;;
21260;SDS011;10788;47.930;9.766;2023-08-17T09:34:11;0.30;;;0.30;;
21260;SDS011;10788;47.930;9.766;2023-08-17T09:36:36;0.33;;;0.33;;
21260;SDS011;10788;47.930;9.766;2023-08-17T09:39:02;0.40;;;0.40;;
21260;SDS011;10788;47.930;9.766;2023-08-17T09:41:28;0.50;;;0.50;;
21260;SDS011;10788;47.930;9.766;2023-08-17T09:43:54;0.50;;;0.50;;
21260;SDS011;10788;47.930;9.766;2023-08-17T09:46:20;0.40;;;0.40;;
21260;SDS011;10788;47.930;9.766;2023-08-17T09:48:47;0.40;;;0.40;;
21260;SDS011;10788;47.930;9.766;2023-08-17T09:51:16;0.40;;;0.40;;
21260;SDS011;10788;47.930;9.766;2023-08-17T09:53:42;0.40;;;0.40;;
21260;SDS011;10788;47.930;9.766;2023-08-17T09:56:08;0.30;;;0.30;;
21260;SDS011;10788;47.930;9.766;2023-08-17T09:58:36;0.33;;;0.33;;
21260;SDS011;10788;47.930;9.766;2023-08-17T10:01:05;0.50;;;0.50;;
21260;SDS011;10788;47.930;9.766;2023-08-17T10:03:33;0.50;;;0.50;;
21260;SDS011;10788;47.930;9.766;2023-08-17T10:06:01;0.50;;;0.50;;
21260;SDS011;10788;47.930;9.766;2023-08-17T10:08:39;0.53;;;0.53;;
21260;SDS011;10788;47.930;9.766;2023-08-17T10:11:08;0.40;;;0.40;;
21260;SDS011;10788;47.930;9.766;2023-08-17T10:13:35;0.40;;;0.40;;
21260;SDS011;10788;47.930;9.766;2023-08-17T10:16:23;0.50;;;0.50;;
21260;SDS011;10788;47.930;9.766;2023-08-17T10:18:54;0.40;;;0.40;;
21260;SDS011;10788;47.930;9.766;2023-08-17T10:21:27;0.50;;;0.50;;
21260;SDS011;10788;47.930;9.766;2023-08-17T10:23:55;0.40;;;0.40;;
21260;SDS011;10788;47.930;9.766;2023-08-17T10:26:23;0.50;;;0.50;;
21260;SDS011;10788;47.930;9.766;2023-08-17T10:28:50;0.50;;;0.50;;
21260;SDS011;10788;47.930;9.766;2023-08-17T10:31:16;0.50;;;0.50;;
21260;SDS011;10788;47.930;9.766;2023-08-17T10:33:43;0.50;;;0.50;;
21260;SDS011;10788;47.930;9.766;2023-08-17T10:36:12;0.60;;;0.60;;
21260;SDS011;10788;47.930;9.766;2023-08-17T10:38:39;0.70;;;0.70;;
21260;SDS011;10788;47.930;9.766;2023-08-17T10:41:08;0.60;;;0.60;;
21260;SDS011;10788;47.930;9.766;2023-08-17T10:43:52;0.47;;;0.47;;
21260;SDS011;10788;47.930;9.766;2023-08-17T10:46:19;0.57;;;0.57;;
21260;SDS011;10788;47.930;9.766;2023-08-17T10:48:44;0.60;;;0.60;;
21260;SDS011;10788;47.930;9.766;2023-08-17T10:51:10;0.57;;;0.57;;
21260;SDS011;10788;47.930;9.766;2023-08-17T10:53:40;0.70;;;0.70;;
21260;SDS011;10788;47.930;9.766;2023-08-17T10:56:10;0.57;;;0.57;;
21260;SDS011;10788;47.930;9.766;2023-08-17T10:58:38;0.60;;;0.60;;
21260;SDS011;10788;47.930;9.766;2023-08-17T11:01:04;0.60;;;0.60;;
21260;SDS011;10788;47.930;9.766;2023-08-17T11:03:30;0.60;;;0.60;;
21260;SDS011;10788;47.930;9.766;2023-08-17T11:05:56;0.60;;;0.60;;
21260;SDS011;10788;47.930;9.766;2023-08-17T11:08:23;0.60;;;0.60;;
21260;SDS011;10788;47.930;9.766;2023-08-17T11:11:14;0.60;;;0.60;;
21260;SDS011;10788;47.930;9.766;2023-08-17T11:16:06;0.60;;;0.60;;
21260;SDS011;10788;47.930;9.766;2023-08-17T11:18:33;0.70;;;0.70;;
21260;SDS011;10788;47.930;9.766;2023-08-17T11:20:59;0.70;;;0.70;;
21260;SDS011;10788;47.930;9.766;2023-08-17T11:23:28;0.50;;;0.50;;
21260;SDS011;10788;47.930;9.766;2023-08-17T11:25:55;0.73;;;0.73;;
21260;SDS011;10788;47.930;9.766;2023-08-17T11:28:22;0.70;;;0.70;;
21260;SDS011;10788;47.930;9.766;2023-08-17T11:31:01;0.50;;;0.50;;
21260;SDS011;10788;47.930;9.766;2023-08-17T11:33:28;0.80;;;0.80;;
21260;SDS011;10788;47.930;9.766;2023-08-17T11:35:56;0.60;;;0.60;;
21260;SDS011;10788;47.930;9.766;2023-08-17T11:38:29;0.60;;;0.60;;
21260;SDS011;10788;47.930;9.766;2023-08-17T11:40:57;0.80;;;0.80;;
21260;SDS011;10788;47.930;9.766;2023-08-17T11:43:24;0.50;;;0.50;;
21260;SDS011;10788;47.930;9.766;2023-08-17T11:45:51;0.60;;;0.60;;
21260;SDS011;10788;47.930;9.766;2023-08-17T11:48:18;0.50;;;0.50;;
21260;SDS011;10788;47.930;9.766;2023-08-17T11:50:44;0.70;;;0.70;;
21260;SDS011;10788;47.930;9.766;2023-08-17T11:53:10;0.60;;;0.60;;
21260;SDS011;10788;47.930;9.766;2023-08-17T11:55:36;0.80;;;0.80;;
21260;SDS011;10788;47.930;9.766;2023-08-17T11:58:02;0.60;;;0.60;;
21260;SDS011;10788;47.930;9.766;2023-08-17T12:00:33;0.60;;;0.60;;
21260;SDS011;10788;47.930;9.766;2023-08-17T12:03:07;0.70;;;0.70;;
21260;SDS011;10788;47.930;9.766;2023-08-17T12:05:32;0.70;;;0.70;;
21260;SDS011;10788;47.930;9.766;2023-08-17T12:08:01;0.60;;;0.60;;
21260;SDS011;10788;47.930;9.766;2023-08-17T12:10:37;0.60;;;0.60;;
21260;SDS011;10788;47.930;9.766;2023-08-17T12:13:03;0.43;;;0.43;;
21260;SDS011;10788;47.930;9.766;2023-08-17T12:15:34;0.70;;;0.70;;
21260;SDS011;10788;47.930;9.766;2023-08-17T12:18:03;0.60;;;0.60;;
21260;SDS011;10788;47.930;9.766;2023-08-17T12:20:29;0.50;;;0.50;;
21260;SDS011;10788;47.930;9.766;2023-08-17T12:22:57;0.70;;;0.70;;
21260;SDS011;10788;47.930;9.766;2023-08-17T12:25:24;0.80;;;0.80;;
21260;SDS011;10788;47.930;9.766;2023-08-17T12:27:50;0.60;;;0.60;;
21260;SDS011;10788;47.930;9.766;2023-08-17T12:30:26;0.50;;;0.50;;
21260;SDS011;10788;47.930;9.766;2023-08-17T12:32:53;0.70;;;0.70;;
21260;SDS011;10788;47.930;9.766;2023-08-17T12:35:19;0.60;;;0.60;;
21260;SDS011;10788;47.930;9.766;2023-08-17T12:37:47;0.70;;;0.70;;
21260;SDS011;10788;47.930;9.766;2023-08-17T12:40:12;0.60;;;0.60;;
21260;SDS011;10788;47.930;9.766;2023-08-17T12:42:38;0.60;;;0.60;;
21260;SDS011;10788;47.930;9.766;2023-08-17T12:45:04;0.53;;;0.53;;
21260;SDS011;10788;47.930;9.766;2023-08-17T12:47:30;0.60;;;0.60;;
21260;SDS011;10788;47.930;9.766;2023-08-17T12:49:55;0.50;;;0.50;;
21260;SDS011;10788;47.930;9.766;2023-08-17T12:52:21;0.70;;;0.70;;
21260;SDS011;10788;47.930;9.766;2023-08-17T12:54:47;0.60;;;0.60;;
21260;SDS011;10788;47.930;9.766;2023-08-17T12:57:12;0.60;;;0.60;;
21260;SDS011;10788;47.930;9.766;2023-08-17T12:59:38;0.70;;;0.70;;
21260;SDS011;10788;47.930;9.766;2023-08-17T13:02:03;0.43;;;0.43;;
21260;SDS011;10788;47.930;9.766;2023-08-17T13:04:29;0.53;;;0.53;;
21260;SDS011;10788;47.930;9.766;2023-08-17T13:06:54;0.57;;;0.57;;
21260;SDS011;10788;47.930;9.766;2023-08-17T13:09:20;0.70;;;0.70;;
21260;SDS011;10788;47.930;9.766;2023-08-17T13:11:46;0.67;;;0.67;;
21260;SDS011;10788;47.930;9.766;2023-08-17T13:14:12;0.63;;;0.63;;
21260;SDS011;10788;47.930;9.766;2023-08-17T13:16:39;0.57;;;0.57;;
21260;SDS011;10788;47.930;9.766;2023-08-17T13:19:05;0.60;;;0.60;;
21260;SDS011;10788;47.930;9.766;2023-08-17T13:21:30;0.70;;;0.70;;
21260;SDS011;10788;47.930;9.766;2023-08-17T13:23:56;0.60;;;0.60;;
21260;SDS011;10788;47.930;9.766;2023-08-17T13:26:22;0.60;;;0.60;;
21260;SDS011;10788;47.930;9.766;2023-08-17T13:28:47;0.60;;;0.60;;
21260;SDS011;10788;47.930;9.766;2023-08-17T13:31:13;0.63;;;0.63;;
21260;SDS011;10788;47.930;9.766;2023-08-17T13:33:39;0.50;;;0.50;;
21260;SDS011;10788;47.930;9.766;2023-08-17T13:36:04;0.67;;;0.67;;
21260;SDS011;10788;47.930;9.766;2023-08-17T13:38:30;0.57;;;0.57;;
21260;SDS011;10788;47.930;9.766;2023-08-17T13:40:56;0.60;;;0.60;;
21260;SDS011;10788;47.930;9.766;2023-08-17T13:43:22;0.57;;;0.57;;
21260;SDS011;10788;47.930;9.766;2023-08-17T13:45:47;0.40;;;0.40;;
21260;SDS011;10788;47.930;9.766;2023-08-17T13:48:13;0.70;;;0.70;;
21260;SDS011;10788;47.930;9.766;2023-08-17T13:50:39;0.60;;;0.60;;
21260;SDS011;10788;47.930;9.766;2023-08-17T13:53:05;0.50;;;0.50;;
21260;SDS011;10788;47.930;9.766;2023-08-17T13:55:30;0.53;;;0.53;;
21260;SDS011;10788;47.930;9.766;2023-08-17T13:57:56;0.40;;;0.40;;
21260;SDS011;10788;47.930;9.766;2023-08-17T14:00:23;0.40;;;0.40;;
21260;SDS011;10788;47.930;9.766;2023-08-17T14:02:49;0.30;;;0.30;;
21260;SDS011;10788;47.930;9.766;2023-08-17T14:05:15;0.30;;;0.30;;
21260;SDS011;10788;47.930;9.766;2023-08-17T14:07:41;0.30;;;0.30;;
21260;SDS011;10788;47.930;9.766;2023-08-17T14:10:06;0.20;;;0.20;;
21260;SDS011;10788;47.930;9.766;2023-08-17T14:12:32;0.33;;;0.33;;
21260;SDS011;10788;47.930;9.766;2023-08-17T14:14:59;0.40;;;0.40;;
21260;SDS011;10788;47.930;9.766;2023-08-17T14:17:24;0.30;;;0.30;;
21260;SDS011;10788;47.930;9.766;2023-08-17T14:19:50;0.30;;;0.30;;
21260;SDS011;10788;47.930;9.766;2023-08-17T14:22:15;0.20;;;0.20;;
21260;SDS011;10788;47.930;9.766;2023-08-17T14:24:41;0.20;;;0.20;;
21260;SDS011;10788;47.930;9.766;2023-08-17T14:27:07;0.30;;;0.30;;
21260;SDS011;10788;47.930;9.766;2023-08-17T14:29:32;0.37;;;0.37;;
21260;SDS011;10788;47.930;9.766;2023-08-17T14:31:58;0.30;;;0.30;;
21260;SDS011;10788;47.930;9.766;2023-08-17T14:34:23;0.30;;;0.30;;
21260;SDS011;10788;47.930;9.766;2023-08-17T14:36:49;0.20;;;0.20;;
21260;SDS011;10788;47.930;9.766;2023-08-17T14:39:15;0.40;;;0.40;;
21260;SDS011;10788;47.930;9.766;2023-08-17T14:41:40;0.30;;;0.30;;
21260;SDS011;10788;47.930;9.766;2023-08-17T14:44:06;0.30;;;0.30;;
21260;SDS011;10788;47.930;9.766;2023-08-17T14:46:31;0.37;;;0.37;;
21260;SDS011;10788;47.930;9.766;2023-08-17T14:48:57;0.30;;;0.30;;